Time;durP1;ratioP1;P1;durP2;ratioP2;P2;SDS_P1;SDS_P2;PMS_P1;PMS_P2;Temp;Humidity;BMP_temperature;BMP_pressure;BME280_temperature;BME280_humidity;BME280_pressure;Samples;Min_cycle;Max_cycle;Signal;HPM_P1;HPM_P2
2021/12/22 00:01:14;;;;;;;28.87;14.70;;;1.50;77.00;;;;;;4972387;28;20283;-85
2021/12/22 00:03:45;;;;;;;20.88;13.90;;;1.40;76.80;;;;;;4957161;28;20208;-85
2021/12/22 00:06:13;;;;;;;26.35;15.35;;;1.40;76.90;;;;;;4971030;28;20173;-85
2021/12/22 00:08:39;;;;;;;33.22;16.60;;;1.40;77.00;;;;;;4956742;29;20188;-86
2021/12/22 00:11:04;;;;;;;34.07;16.27;;;1.30;77.10;;;;;;4975285;28;20214;-86
2021/12/22 00:13:30;;;;;;;28.50;15.83;;;1.40;77.20;;;;;;4956449;28;20192;-86
2021/12/22 00:15:56;;;;;;;34.93;17.47;;;1.40;77.20;;;;;;4975522;28;20184;-86
2021/12/22 00:18:22;;;;;;;25.63;15.17;;;1.40;77.30;;;;;;4964442;28;20215;-85
2021/12/22 00:20:48;;;;;;;31.10;15.82;;;1.50;77.40;;;;;;4984600;28;20487;-85
2021/12/22 00:23:14;;;;;;;29.17;15.20;;;1.50;77.30;;;;;;4983251;28;20264;-85
2021/12/22 00:25:40;;;;;;;29.67;14.82;;;1.40;77.00;;;;;;4978796;28;20211;-85
2021/12/22 00:28:06;;;;;;;37.60;15.90;;;1.40;77.20;;;;;;4970512;28;20188;-86
2021/12/22 00:30:32;;;;;;;32.07;14.53;;;1.30;77.30;;;;;;4959601;28;20452;-86
2021/12/22 00:33:04;;;;;;;30.85;15.23;;;1.30;77.30;;;;;;4959293;29;20459;-85
2021/12/22 00:35:38;;;;;;;34.10;16.92;;;1.30;77.70;;;;;;4977090;28;20241;-85
2021/12/22 00:38:05;;;;;;;33.47;16.20;;;1.30;77.70;;;;;;4962143;28;20207;-86
2021/12/22 00:40:31;;;;;;;24.42;16.58;;;1.30;77.70;;;;;;4954246;28;20200;-85
2021/12/22 00:42:57;;;;;;;32.33;16.60;;;1.30;77.80;;;;;;4971275;28;20218;-85
2021/12/22 00:45:25;;;;;;;27.63;17.45;;;1.20;77.80;;;;;;4952392;28;20432;-85
2021/12/22 00:47:51;;;;;;;29.85;17.15;;;1.30;78.00;;;;;;4973694;28;20189;-86
2021/12/22 00:50:17;;;;;;;28.93;16.27;;;1.20;77.90;;;;;;4966241;28;20247;-86
2021/12/22 00:52:42;;;;;;;28.40;17.23;;;1.20;77.70;;;;;;4958969;29;20438;-85
2021/12/22 00:55:08;;;;;;;26.30;16.07;;;1.10;77.80;;;;;;4958092;28;20188;-86
2021/12/22 00:57:37;;;;;;;31.50;17.20;;;1.10;78.10;;;;;;4959406;28;20456;-85
2021/12/22 01:00:05;;;;;;;35.40;15.95;;;1.30;78.00;;;;;;4958041;29;20192;-85
2021/12/22 01:02:32;;;;;;;34.97;16.70;;;1.20;77.90;;;;;;4977714;28;20682;-86
2021/12/22 01:04:58;;;;;;;37.53;17.75;;;1.10;77.70;;;;;;4971207;28;20296;-86
2021/12/22 01:07:23;;;;;;;22.47;15.93;;;1.20;77.70;;;;;;4965876;28;20219;-85
2021/12/22 01:09:49;;;;;;;26.00;17.67;;;1.20;77.80;;;;;;4970920;28;20434;-84
2021/12/22 01:12:15;;;;;;;30.47;17.03;;;1.10;77.90;;;;;;4978743;28;20203;-85
2021/12/22 01:14:41;;;;;;;27.60;15.90;;;1.10;78.40;;;;;;4973518;28;20435;-85
2021/12/22 01:17:11;;;;;;;27.98;16.52;;;1.10;77.80;;;;;;4969306;28;20236;-85
2021/12/22 01:19:53;;;;;;;34.97;18.15;;;1.20;77.80;;;;;;4957490;29;20616;-85
2021/12/22 01:24:48;;;;;;;38.40;17.83;;;1.10;78.10;;;;;;4939059;29;20180;-85
2021/12/22 01:27:20;;;;;;;29.08;16.88;;;1.00;78.00;;;;;;4938092;29;20192;-85
2021/12/22 01:29:46;;;;;;;25.40;16.92;;;1.10;78.10;;;;;;4965438;28;20625;-85
2021/12/22 01:32:13;;;;;;;41.63;17.38;;;1.00;78.00;;;;;;4963709;28;20219;-86
2021/12/22 01:34:39;;;;;;;31.73;18.10;;;1.00;78.10;;;;;;4967553;28;20219;-86
2021/12/22 01:37:04;;;;;;;31.60;17.63;;;0.90;78.30;;;;;;4969969;28;20303;-86
2021/12/22 01:39:30;;;;;;;26.70;16.70;;;1.00;78.40;;;;;;4973457;28;20569;-86
2021/12/22 01:41:56;;;;;;;27.00;17.40;;;0.80;78.60;;;;;;4963383;28;20734;-86
2021/12/22 01:44:45;;;;;;;26.10;16.50;;;0.80;78.90;;;;;;4964248;28;20184;-86
2021/12/22 01:49:55;;;;;;;23.77;16.20;;;0.60;79.40;;;;;;4977141;28;20187;-86
2021/12/22 01:52:21;;;;;;;29.57;16.30;;;0.90;79.40;;;;;;4971469;28;20192;-85
2021/12/22 01:55:07;;;;;;;31.25;16.98;;;0.90;79.00;;;;;;4958691;28;20439;-85
2021/12/22 01:57:43;;;;;;;34.05;18.48;;;0.70;79.10;;;;;;4954664;28;20231;-85
2021/12/22 02:00:09;;;;;;;28.15;17.48;;;0.70;79.20;;;;;;4976347;28;20252;-85
2021/12/22 02:02:35;;;;;;;33.92;16.67;;;0.80;79.20;;;;;;4962724;28;20656;-85
2021/12/22 02:05:01;;;;;;;29.90;17.80;;;0.60;79.20;;;;;;4969594;28;20195;-86
2021/12/22 02:07:27;;;;;;;26.60;17.10;;;0.50;79.60;;;;;;4975558;28;20211;-86
2021/12/22 02:10:10;;;;;;;34.10;17.97;;;0.60;79.80;;;;;;4960271;28;20473;-86
2021/12/22 02:12:41;;;;;;;28.70;16.73;;;0.60;79.90;;;;;;4969713;28;20640;-85
2021/12/22 02:15:08;;;;;;;25.60;15.60;;;0.60;79.80;;;;;;4955919;28;20180;-86
2021/12/22 02:17:35;;;;;;;31.75;20.42;;;0.80;79.60;;;;;;4975243;28;20196;-85
2021/12/22 02:20:02;;;;;;;28.77;16.67;;;0.90;79.20;;;;;;4957310;28;20236;-84
2021/12/22 02:22:28;;;;;;;40.17;17.00;;;0.90;79.00;;;;;;4971429;28;20219;-85
2021/12/22 02:24:59;;;;;;;28.38;16.38;;;0.80;79.00;;;;;;4964442;28;20184;-85
2021/12/22 02:27:34;;;;;;;37.72;18.73;;;0.70;79.30;;;;;;4957509;28;20157;-86
2021/12/22 02:30:03;;;;;;;35.03;18.52;;;0.80;79.40;;;;;;4972246;28;20188;-85
2021/12/22 02:35:14;;;;;;;25.95;17.70;;;0.90;78.80;;;;;;4970259;28;20211;-86
2021/12/22 02:37:44;;;;;;;34.67;17.03;;;0.90;78.80;;;;;;4967055;28;20287;-86
2021/12/22 02:40:14;;;;;;;25.65;16.95;;;1.00;78.70;;;;;;4967826;28;20518;-86
2021/12/22 02:42:41;;;;;;;31.50;18.55;;;0.90;78.60;;;;;;4964721;28;20658;-86
2021/12/22 02:45:13;;;;;;;30.50;17.65;;;0.90;78.50;;;;;;4958977;28;20272;-86
2021/12/22 02:47:39;;;;;;;32.40;16.80;;;1.00;78.50;;;;;;4960233;28;20664;-86
2021/12/22 02:50:06;;;;;;;38.72;19.27;;;0.80;78.60;;;;;;4942118;28;20180;-85
2021/12/22 02:52:45;;;;;;;38.13;19.38;;;0.70;78.90;;;;;;4969941;28;20192;-86
2021/12/22 02:55:11;;;;;;;21.60;15.82;;;0.50;79.10;;;;;;4951617;28;20658;-86
2021/12/22 02:57:42;;;;;;;33.97;16.70;;;0.50;79.50;;;;;;4970027;28;20239;-86
2021/12/22 03:05:07;;;;;;;32.13;17.65;;;0.80;79.30;;;;;;4959038;28;20167;-86
2021/12/22 03:07:33;;;;;;;32.58;18.80;;;0.80;79.10;;;;;;4968909;28;20288;-86
2021/12/22 03:10:07;;;;;;;31.03;17.40;;;0.80;79.00;;;;;;4965216;28;20207;-86
2021/12/22 03:12:35;;;;;;;27.38;17.27;;;0.80;78.80;;;;;;4965205;28;20456;-85
2021/12/22 03:15:05;;;;;;;31.08;18.75;;;0.90;78.80;;;;;;4973576;28;20184;-85
2021/12/22 03:17:31;;;;;;;28.13;18.83;;;0.80;78.50;;;;;;4946139;29;20299;-86
2021/12/22 03:19:56;;;;;;;26.53;18.00;;;0.80;78.60;;;;;;4967762;28;20224;-85
2021/12/22 03:22:23;;;;;;;24.60;16.10;;;0.80;78.60;;;;;;4961569;28;20450;-86
2021/12/22 03:24:51;;;;;;;36.50;19.77;;;0.60;78.80;;;;;;4975429;28;20321;-86
2021/12/22 03:27:17;;;;;;;26.38;16.98;;;0.60;79.00;;;;;;4963605;28;20191;-85
2021/12/22 03:29:43;;;;;;;34.58;17.48;;;0.60;79.10;;;;;;4969024;28;20215;-85
2021/12/22 03:32:10;;;;;;;29.70;16.63;;;0.60;79.10;;;;;;4966565;28;20255;-86
2021/12/22 03:34:37;;;;;;;28.90;16.73;;;0.60;79.10;;;;;;4973911;28;20431;-86
2021/12/22 03:37:04;;;;;;;30.85;16.48;;;0.80;79.10;;;;;;4965198;28;20675;-86
2021/12/22 03:39:32;;;;;;;27.50;16.55;;;0.70;79.00;;;;;;4954950;29;20188;-86
2021/12/22 03:41:58;;;;;;;26.88;17.20;;;0.70;79.20;;;;;;4971134;28;20299;-86
2021/12/22 03:44:23;;;;;;;30.73;17.38;;;0.70;79.00;;;;;;4962281;28;20707;-86
2021/12/22 03:46:51;;;;;;;27.37;17.13;;;0.70;78.80;;;;;;4963823;28;20597;-86
2021/12/22 03:49:17;;;;;;;31.55;17.70;;;0.70;79.40;;;;;;4963954;28;20195;-86
2021/12/22 03:51:43;;;;;;;26.60;16.52;;;0.70;78.70;;;;;;4974756;28;20207;-86
2021/12/22 03:54:13;;;;;;;26.87;17.00;;;0.70;79.00;;;;;;4973516;28;20286;-86
2021/12/22 03:56:39;;;;;;;30.38;18.23;;;0.70;79.10;;;;;;4965942;28;20188;-86
2021/12/22 03:59:05;;;;;;;36.37;18.90;;;0.80;79.00;;;;;;4965242;28;20185;-86
2021/12/22 04:01:32;;;;;;;27.83;17.02;;;0.60;79.10;;;;;;4959141;28;20526;-86
2021/12/22 04:04:02;;;;;;;38.60;17.90;;;0.50;79.30;;;;;;4972693;28;20239;-86
2021/12/22 04:06:28;;;;;;;35.55;16.73;;;0.50;79.50;;;;;;4958490;29;20180;-86
2021/12/22 04:08:54;;;;;;;32.57;18.30;;;0.60;79.50;;;;;;4972709;28;20553;-86
2021/12/22 04:11:19;;;;;;;28.43;17.13;;;0.50;79.60;;;;;;4977785;28;20667;-86
2021/12/22 04:13:45;;;;;;;31.43;17.93;;;0.50;79.60;;;;;;4973907;28;20537;-86
2021/12/22 04:16:11;;;;;;;33.00;19.00;;;0.60;79.60;;;;;;4963757;28;20922;-87
2021/12/22 04:18:37;;;;;;;30.37;17.30;;;0.60;79.30;;;;;;4970577;28;20470;-86
2021/12/22 04:21:03;;;;;;;34.20;18.60;;;0.60;78.90;;;;;;4977329;28;20308;-86
2021/12/22 04:23:28;;;;;;;28.60;17.20;;;0.50;78.80;;;;;;4987228;28;20438;-85
2021/12/22 04:25:54;;;;;;;36.80;18.60;;;0.30;78.70;;;;;;4991941;28;20191;-85
2021/12/22 04:28:20;;;;;;;29.57;17.20;;;0.20;79.00;;;;;;4965379;28;20290;-86
2021/12/22 04:30:48;;;;;;;36.87;18.30;;;0.30;79.50;;;;;;4963024;28;20461;-87
2021/12/22 04:33:15;;;;;;;30.65;15.90;;;0.20;79.60;;;;;;4977531;28;20672;-87
2021/12/22 04:35:42;;;;;;;27.35;16.92;;;0.30;79.90;;;;;;4966178;28;20185;-86
2021/12/22 04:38:08;;;;;;;29.73;15.60;;;0.30;80.00;;;;;;4971838;28;20207;-87
2021/12/22 04:40:33;;;;;;;31.50;17.60;;;0.30;80.00;;;;;;4968452;28;20255;-86
2021/12/22 04:42:59;;;;;;;27.40;16.50;;;0.30;80.20;;;;;;4973625;28;20430;-86
2021/12/22 04:45:25;;;;;;;35.60;17.30;;;0.30;80.10;;;;;;4959747;28;20424;-87
2021/12/22 04:47:51;;;;;;;29.90;16.83;;;0.40;79.90;;;;;;4979371;28;20184;-86
2021/12/22 04:50:18;;;;;;;29.83;16.98;;;0.40;79.80;;;;;;4977210;28;20189;-86
2021/12/22 04:52:57;;;;;;;27.80;16.95;;;0.30;79.80;;;;;;4972458;28;20219;-87
2021/12/22 04:55:25;;;;;;;32.55;15.40;;;0.40;79.40;;;;;;4981818;28;20218;-85
2021/12/22 04:57:52;;;;;;;28.38;16.52;;;0.40;79.20;;;;;;4969552;28;20200;-86
2021/12/22 05:00:19;;;;;;;29.00;16.55;;;0.40;79.10;;;;;;4980206;28;20212;-86
2021/12/22 05:02:45;;;;;;;35.92;17.73;;;0.30;79.30;;;;;;4965655;28;20177;-87
2021/12/22 05:05:11;;;;;;;31.08;16.50;;;0.40;79.40;;;;;;4973325;28;20524;-87
2021/12/22 05:07:37;;;;;;;28.83;16.77;;;0.30;79.20;;;;;;4966309;28;20195;-86
2021/12/22 05:10:04;;;;;;;21.05;15.80;;;0.30;79.20;;;;;;4969838;28;20176;-86
2021/12/22 05:12:30;;;;;;;36.05;16.15;;;0.20;79.20;;;;;;4967314;28;20255;-86
2021/12/22 05:14:56;;;;;;;26.27;16.63;;;0.30;79.20;;;;;;4956974;29;20556;-87
2021/12/22 05:17:28;;;;;;;35.00;17.47;;;0.30;79.00;;;;;;4964087;28;20768;-86
2021/12/22 05:19:53;;;;;;;45.03;20.08;;;0.30;79.00;;;;;;4968233;28;20187;-86
2021/12/22 05:22:19;;;;;;;37.60;20.40;;;0.30;79.00;;;;;;4976052;28;20196;-87
2021/12/22 05:24:45;;;;;;;40.50;19.60;;;0.30;79.10;;;;;;4987641;28;20176;-87
2021/12/22 05:27:13;;;;;;;37.90;19.57;;;0.30;79.20;;;;;;4978877;28;20428;-86
2021/12/22 05:29:39;;;;;;;31.60;17.95;;;0.30;79.20;;;;;;4985707;28;20181;-87
2021/12/22 05:32:06;;;;;;;31.20;17.33;;;0.30;79.20;;;;;;4953990;28;20235;-86
2021/12/22 05:34:33;;;;;;;31.77;14.95;;;0.20;79.20;;;;;;4980419;28;20471;-86
2021/12/22 05:36:59;;;;;;;32.03;17.00;;;0.30;79.30;;;;;;4982739;28;20555;-86
2021/12/22 05:39:25;;;;;;;29.27;16.45;;;0.30;78.90;;;;;;4958432;28;20181;-87
2021/12/22 05:41:51;;;;;;;33.85;17.30;;;0.20;78.70;;;;;;4975692;28;20204;-87
2021/12/22 05:44:17;;;;;;;29.40;16.60;;;0.20;78.90;;;;;;4976855;28;20668;-86
2021/12/22 05:46:42;;;;;;;26.33;16.60;;;0.10;79.00;;;;;;4974032;28;20184;-86
2021/12/22 05:49:08;;;;;;;26.20;15.90;;;0.20;79.10;;;;;;4976358;28;20179;-86
2021/12/22 05:51:34;;;;;;;33.80;17.20;;;0.10;79.20;;;;;;4976117;28;20457;-86
2021/12/22 05:54:00;;;;;;;29.50;17.83;;;0.20;79.10;;;;;;4960502;28;20207;-85
2021/12/22 05:56:29;;;;;;;32.92;15.25;;;0.20;79.10;;;;;;4969655;28;20184;-86
2021/12/22 05:58:56;;;;;;;30.63;18.50;;;0.20;79.20;;;;;;4967411;28;20200;-87
2021/12/22 06:01:22;;;;;;;35.08;16.35;;;-0.10;79.60;;;;;;4966628;28;20207;-87
2021/12/22 06:03:47;;;;;;;35.78;17.73;;;-0.10;80.00;;;;;;4968152;28;20187;-86
2021/12/22 06:06:13;;;;;;;32.77;16.83;;;0.00;79.90;;;;;;4964561;28;20192;-86
2021/12/22 06:08:39;;;;;;;30.33;15.97;;;0.20;79.80;;;;;;4971753;28;20188;-86
2021/12/22 06:11:05;;;;;;;30.90;17.00;;;0.10;80.50;;;;;;4975917;28;20302;-86
2021/12/22 06:13:31;;;;;;;26.93;17.27;;;0.10;79.70;;;;;;4974437;28;20427;-86
2021/12/22 06:15:56;;;;;;;28.03;17.80;;;0.30;79.40;;;;;;4966407;28;20427;-86
2021/12/22 06:18:38;;;;;;;34.33;17.50;;;0.40;79.10;;;;;;4956280;29;20474;-86
2021/12/22 06:21:05;;;;;;;28.88;16.38;;;0.30;78.70;;;;;;4957930;28;20200;-86
2021/12/22 06:23:30;;;;;;;28.48;16.98;;;0.30;78.60;;;;;;4958032;28;20184;-86
2021/12/22 06:25:56;;;;;;;34.63;16.30;;;0.20;78.60;;;;;;4954879;28;20651;-86
2021/12/22 06:28:22;;;;;;;30.93;17.30;;;0.20;78.70;;;;;;4958085;28;20737;-86
2021/12/22 06:30:47;;;;;;;26.87;15.00;;;0.30;78.70;;;;;;4977515;28;20192;-86
2021/12/22 06:33:13;;;;;;;33.53;16.67;;;0.30;78.50;;;;;;4968127;28;20443;-87
2021/12/22 06:35:39;;;;;;;31.27;16.07;;;0.30;78.20;;;;;;4945437;28;20261;-87
2021/12/22 06:38:05;;;;;;;31.03;17.17;;;0.10;78.40;;;;;;4961201;28;20625;-86
2021/12/22 06:40:30;;;;;;;33.10;15.50;;;0.10;78.60;;;;;;4958381;28;20201;-87
2021/12/22 06:42:56;;;;;;;31.43;17.07;;;0.10;78.90;;;;;;4969002;28;20459;-86
2021/12/22 06:45:22;;;;;;;35.50;16.07;;;0.10;79.10;;;;;;4966722;28;20479;-86
2021/12/22 06:47:48;;;;;;;32.50;18.20;;;0.00;79.20;;;;;;4972322;28;20263;-85
2021/12/22 06:50:14;;;;;;;30.75;16.63;;;0.10;79.20;;;;;;4956613;28;20425;-85
2021/12/22 06:52:40;;;;;;;33.33;17.90;;;0.20;79.00;;;;;;4972479;28;20178;-87
2021/12/22 06:55:06;;;;;;;31.13;17.80;;;0.00;78.80;;;;;;4956504;28;20519;-85
2021/12/22 06:57:33;;;;;;;27.42;16.90;;;0.00;79.00;;;;;;4972083;28;20210;-86
2021/12/22 07:00:00;;;;;;;24.65;16.38;;;0.10;79.10;;;;;;4957218;29;20703;-85
2021/12/22 07:02:26;;;;;;;27.52;17.25;;;-0.10;79.00;;;;;;4958990;28;20201;-85
2021/12/22 07:04:52;;;;;;;30.05;17.45;;;0.00;79.00;;;;;;4959489;28;20182;-85
2021/12/22 07:07:18;;;;;;;30.77;17.55;;;0.10;79.00;;;;;;4957544;28;20192;-86
2021/12/22 07:09:44;;;;;;;27.30;17.47;;;-0.10;78.90;;;;;;4971913;28;20188;-85
2021/12/22 07:12:10;;;;;;;26.80;16.70;;;-0.10;79.00;;;;;;4960624;28;20459;-85
2021/12/22 07:14:36;;;;;;;28.83;16.45;;;-0.10;79.30;;;;;;4968874;28;20182;-86
2021/12/22 07:17:02;;;;;;;26.83;15.00;;;-0.10;79.40;;;;;;4956252;29;20306;-85
2021/12/22 07:19:28;;;;;;;27.40;18.37;;;-0.10;79.40;;;;;;4973244;28;20635;-84
2021/12/22 07:21:55;;;;;;;36.00;19.20;;;-0.30;79.60;;;;;;4966979;28;20499;-84
2021/12/22 07:24:21;;;;;;;27.08;18.13;;;-0.10;79.80;;;;;;4954967;29;20177;-84
2021/12/22 07:26:47;;;;;;;35.35;18.60;;;0.10;79.50;;;;;;4957719;29;20275;-86
2021/12/22 07:29:12;;;;;;;36.90;16.40;;;0.00;79.40;;;;;;4955730;29;20219;-85
2021/12/22 07:31:38;;;;;;;34.93;16.70;;;0.00;79.40;;;;;;4955532;29;20279;-85
2021/12/22 07:34:14;;;;;;;39.17;16.43;;;-0.10;79.50;;;;;;4956256;29;20224;-85
2021/12/22 07:36:54;;;;;;;32.58;15.65;;;-0.10;79.60;;;;;;4956342;28;20389;-85
2021/12/22 07:39:19;;;;;;;43.55;17.23;;;0.00;79.40;;;;;;4955763;29;20604;-84
2021/12/22 07:41:45;;;;;;;39.20;19.00;;;0.20;79.10;;;;;;4956789;29;20307;-85
2021/12/22 07:44:11;;;;;;;38.03;18.87;;;0.20;78.80;;;;;;4958133;29;20176;-86
2021/12/22 07:46:36;;;;;;;32.13;17.60;;;0.10;78.80;;;;;;4969616;28;20703;-86
2021/12/22 07:49:02;;;;;;;32.93;19.23;;;0.10;78.80;;;;;;4959118;28;20415;-85
2021/12/22 07:51:28;;;;;;;44.05;20.27;;;0.20;78.60;;;;;;4968736;28;20539;-83
2021/12/22 07:53:54;;;;;;;31.67;18.73;;;0.30;78.60;;;;;;4961600;29;20172;-82
2021/12/22 07:56:20;;;;;;;33.17;18.23;;;0.30;78.40;;;;;;4960916;29;20424;-82
2021/12/22 07:58:45;;;;;;;30.13;17.53;;;0.30;78.50;;;;;;4959317;29;20200;-81
2021/12/22 08:01:11;;;;;;;30.67;17.07;;;0.30;78.40;;;;;;4960134;29;20207;-83
2021/12/22 08:03:37;;;;;;;26.90;15.97;;;0.20;78.40;;;;;;4961255;29;20180;-81
2021/12/22 08:06:03;;;;;;;29.83;17.00;;;0.20;78.40;;;;;;4959257;29;20422;-81
2021/12/22 08:08:29;;;;;;;24.00;15.88;;;0.30;78.20;;;;;;4958680;29;20935;-81
2021/12/22 08:10:54;;;;;;;26.70;14.77;;;0.40;77.80;;;;;;4959127;29;20270;-81
2021/12/22 08:13:20;;;;;;;26.27;15.87;;;0.40;77.50;;;;;;4958979;29;20188;-81
2021/12/22 08:15:46;;;;;;;30.00;15.13;;;0.30;77.60;;;;;;4943038;29;20252;-81
2021/12/22 08:18:12;;;;;;;27.53;15.20;;;0.30;77.70;;;;;;4960726;29;20232;-81
2021/12/22 08:20:38;;;;;;;24.50;15.75;;;0.30;77.60;;;;;;4963778;29;20463;-83
2021/12/22 08:23:04;;;;;;;33.45;15.45;;;0.40;77.40;;;;;;4967134;29;20192;-82
2021/12/22 08:25:30;;;;;;;31.73;15.48;;;0.30;77.60;;;;;;4967235;29;20200;-83
2021/12/22 08:27:56;;;;;;;25.20;15.27;;;0.50;77.70;;;;;;4967725;29;20189;-82
2021/12/22 08:30:21;;;;;;;25.97;15.13;;;0.50;77.30;;;;;;4963328;29;20487;-82
2021/12/22 08:32:47;;;;;;;22.00;16.60;;;0.60;77.20;;;;;;4959843;29;20287;-82
2021/12/22 08:35:16;;;;;;;28.58;14.68;;;0.60;77.80;;;;;;4954954;29;20424;-84
2021/12/22 08:40:30;;;;;;;24.25;14.93;;;0.70;76.90;;;;;;4960248;29;20244;-83
2021/12/22 08:42:56;;;;;;;35.70;16.37;;;0.70;76.40;;;;;;4958999;29;20180;-84
2021/12/22 08:45:22;;;;;;;20.70;12.77;;;0.70;76.40;;;;;;4941675;29;20212;-84
2021/12/22 08:47:48;;;;;;;21.90;14.37;;;0.80;76.00;;;;;;4980962;28;20214;-84
2021/12/22 08:50:16;;;;;;;25.42;14.70;;;0.60;76.00;;;;;;4989791;28;20434;-82
2021/12/22 08:52:41;;;;;;;28.00;13.27;;;0.60;76.20;;;;;;4994964;28;20161;-83
2021/12/22 08:55:08;;;;;;;21.80;14.13;;;0.70;76.30;;;;;;4994718;28;20259;-83
2021/12/22 08:57:35;;;;;;;28.23;14.02;;;0.80;76.10;;;;;;4985817;28;20690;-83
2021/12/22 09:00:04;;;;;;;20.70;14.10;;;0.60;76.00;;;;;;4983373;28;20188;-83
2021/12/22 09:02:30;;;;;;;24.52;12.88;;;0.70;76.20;;;;;;4981601;28;20537;-86
2021/12/22 09:04:55;;;;;;;24.30;13.13;;;0.80;76.10;;;;;;4981488;28;20187;-84
2021/12/22 09:07:21;;;;;;;18.23;13.10;;;1.00;75.60;;;;;;4983303;28;20889;-84
2021/12/22 09:09:47;;;;;;;29.07;13.57;;;1.00;75.10;;;;;;4983226;28;20187;-84
2021/12/22 09:12:14;;;;;;;23.53;13.53;;;1.00;75.10;;;;;;4984826;28;20200;-85
2021/12/22 09:14:40;;;;;;;21.90;12.32;;;1.10;75.00;;;;;;4968208;28;20280;-84
2021/12/22 09:17:06;;;;;;;22.83;14.20;;;1.20;74.90;;;;;;4969161;29;20238;-85
2021/12/22 09:19:32;;;;;;;18.30;12.47;;;1.20;74.70;;;;;;4974492;29;20991;-85
2021/12/22 09:21:57;;;;;;;25.60;13.03;;;1.20;74.60;;;;;;4973038;29;20455;-84
2021/12/22 09:24:23;;;;;;;21.23;12.63;;;1.20;74.50;;;;;;4973029;29;20268;-85
2021/12/22 09:26:49;;;;;;;19.57;11.60;;;1.10;74.70;;;;;;4966050;29;20427;-85
2021/12/22 09:29:15;;;;;;;26.60;12.98;;;1.30;74.90;;;;;;4961053;29;20173;-85
2021/12/22 09:31:41;;;;;;;17.47;13.10;;;1.30;74.70;;;;;;4958814;29;20554;-85
2021/12/22 09:34:07;;;;;;;20.67;11.97;;;1.30;74.40;;;;;;4960478;29;20888;-85
2021/12/22 09:36:33;;;;;;;24.02;12.75;;;1.40;74.40;;;;;;4942652;29;20420;-85
2021/12/22 09:39:02;;;;;;;20.43;12.83;;;1.40;74.40;;;;;;4955963;29;20220;-85
2021/12/22 09:41:28;;;;;;;24.88;13.05;;;1.40;74.20;;;;;;4923346;29;20445;-84
2021/12/22 09:43:55;;;;;;;22.90;11.47;;;1.50;74.40;;;;;;4940478;29;20259;-84
2021/12/22 09:46:23;;;;;;;24.33;12.23;;;1.70;74.30;;;;;;4938216;29;20665;-85
2021/12/22 09:48:58;;;;;;;20.15;10.93;;;1.70;74.00;;;;;;4939031;29;20213;-84
2021/12/22 09:53:53;;;;;;;23.30;13.40;;;1.80;73.20;;;;;;4940931;29;20213;-84
2021/12/22 09:56:24;;;;;;;29.08;12.00;;;1.90;73.10;;;;;;4939025;29;20181;-84
2021/12/22 09:58:50;;;;;;;23.92;13.05;;;1.90;73.10;;;;;;4938732;29;20272;-84
2021/12/22 10:01:22;;;;;;;24.83;12.70;;;1.90;73.00;;;;;;4937959;29;20608;-84
2021/12/22 10:03:49;;;;;;;20.80;10.95;;;2.00;72.80;;;;;;4937506;29;20233;-84
2021/12/22 10:06:15;;;;;;;19.92;12.07;;;2.00;72.90;;;;;;4938786;29;20177;-84
2021/12/22 10:08:51;;;;;;;19.10;11.80;;;2.10;72.90;;;;;;4940068;29;20249;-84
2021/12/22 10:11:17;;;;;;;25.17;11.70;;;2.10;72.50;;;;;;4940299;29;20451;-84
2021/12/22 10:13:44;;;;;;;21.63;12.20;;;2.10;72.20;;;;;;4948495;29;20181;-84
2021/12/22 10:16:12;;;;;;;19.60;11.85;;;2.10;72.20;;;;;;4960212;28;20446;-84
2021/12/22 10:18:38;;;;;;;19.55;12.05;;;2.10;72.30;;;;;;4959001;29;20208;-84
2021/12/22 10:21:16;;;;;;;21.00;11.60;;;2.00;72.50;;;;;;4959015;28;20552;-84
2021/12/22 10:23:48;;;;;;;18.35;11.02;;;2.10;73.00;;;;;;4958529;29;20416;-87
2021/12/22 10:26:18;;;;;;;22.33;12.30;;;2.20;73.30;;;;;;4959635;28;20276;-84
2021/12/22 10:28:45;;;;;;;21.65;12.82;;;2.10;72.80;;;;;;4958979;29;20683;-84
2021/12/22 10:31:11;;;;;;;20.75;11.48;;;2.20;72.60;;;;;;4958814;29;20221;-83
2021/12/22 10:33:41;;;;;;;18.27;10.63;;;2.20;72.60;;;;;;4959789;29;20231;-80
2021/12/22 10:36:17;;;;;;;20.35;11.20;;;2.30;72.80;;;;;;4961749;28;20271;-82
2021/12/22 10:39:00;;;;;;;19.13;11.45;;;2.40;72.50;;;;;;4960998;29;20659;-82
2021/12/22 10:41:32;;;;;;;19.00;11.85;;;2.30;72.10;;;;;;4961012;28;20780;-82
2021/12/22 10:43:59;;;;;;;15.68;10.40;;;2.40;71.90;;;;;;4959527;29;20554;-82
2021/12/22 10:46:32;;;;;;;17.27;11.95;;;2.50;71.80;;;;;;4959674;29;20185;-82
2021/12/22 10:49:20;;;;;;;16.80;10.68;;;2.50;71.60;;;;;;4958965;29;20184;-82
2021/12/22 10:51:57;;;;;;;22.60;12.68;;;2.60;71.60;;;;;;4958773;29;20215;-82
2021/12/22 10:54:29;;;;;;;19.40;11.10;;;2.70;71.50;;;;;;4958422;29;20236;-82
2021/12/22 10:56:58;;;;;;;21.65;12.40;;;2.70;71.00;;;;;;4959822;29;20184;-82
2021/12/22 10:59:24;;;;;;;28.48;12.10;;;2.80;70.70;;;;;;4959974;28;20668;-82
2021/12/22 11:01:53;;;;;;;18.60;11.10;;;2.60;70.80;;;;;;4958508;29;20205;-82
2021/12/22 11:04:24;;;;;;;18.35;10.60;;;2.80;71.20;;;;;;4958514;29;20448;-83
2021/12/22 11:06:52;;;;;;;20.98;11.55;;;2.80;70.80;;;;;;4960742;28;20192;-83
2021/12/22 11:09:19;;;;;;;28.00;11.05;;;2.60;70.50;;;;;;4959209;29;20189;-83
2021/12/22 11:11:54;;;;;;;20.85;11.40;;;2.50;70.90;;;;;;4942167;29;20205;-83
2021/12/22 11:14:26;;;;;;;17.80;11.02;;;2.30;71.40;;;;;;4953318;29;20176;-83
2021/12/22 11:16:51;;;;;;;22.52;10.48;;;2.40;71.70;;;;;;4959349;29;20177;-83
2021/12/22 11:19:17;;;;;;;18.30;10.40;;;2.60;71.50;;;;;;4959164;29;20195;-83
2021/12/22 11:21:58;;;;;;;22.33;11.27;;;2.50;71.10;;;;;;4958112;29;20196;-83
2021/12/22 11:24:26;;;;;;;19.90;11.25;;;2.80;71.00;;;;;;4942877;29;20431;-83
2021/12/22 11:26:52;;;;;;;15.52;11.13;;;2.70;70.50;;;;;;4959648;28;20248;-83
2021/12/22 11:29:18;;;;;;;18.30;10.02;;;2.70;70.50;;;;;;4958255;29;20180;-83
2021/12/22 11:31:47;;;;;;;24.58;11.48;;;2.90;70.40;;;;;;4960400;28;20208;-82
2021/12/22 11:34:16;;;;;;;25.92;11.82;;;3.00;70.00;;;;;;4961597;28;20161;-83
2021/12/22 11:36:44;;;;;;;33.47;14.35;;;3.10;69.70;;;;;;4965289;28;20189;-83
2021/12/22 11:39:10;;;;;;;26.65;13.43;;;3.10;69.80;;;;;;4960686;28;20213;-82
2021/12/22 11:41:44;;;;;;;26.83;12.85;;;3.10;70.00;;;;;;4958685;29;20748;-83
2021/12/22 11:44:11;;;;;;;21.40;13.35;;;3.00;69.80;;;;;;4958798;29;20669;-84
2021/12/22 11:46:38;;;;;;;18.77;11.60;;;3.20;69.80;;;;;;4958910;29;20273;-82
2021/12/22 11:49:04;;;;;;;20.33;11.23;;;3.40;69.60;;;;;;4959556;29;20180;-82
2021/12/22 11:51:32;;;;;;;24.48;11.80;;;3.30;69.00;;;;;;4963166;29;20201;-83
2021/12/22 11:54:07;;;;;;;26.90;11.88;;;3.40;69.10;;;;;;4966037;29;20195;-82
2021/12/22 11:56:47;;;;;;;19.08;11.75;;;3.10;68.60;;;;;;4976492;28;20184;-82
2021/12/22 11:59:28;;;;;;;21.83;12.10;;;3.30;68.60;;;;;;4947051;29;20555;-83
2021/12/22 12:02:33;;;;;;;26.95;12.25;;;3.40;68.70;;;;;;4957408;29;20207;-82
2021/12/22 12:05:23;;;;;;;20.20;12.00;;;3.60;68.30;;;;;;4921840;29;20185;-83
2021/12/22 12:07:56;;;;;;;21.92;11.30;;;3.40;67.70;;;;;;4954953;29;20516;-83
2021/12/22 12:10:33;;;;;;;23.80;11.27;;;3.20;67.70;;;;;;4958608;29;20176;-83
2021/12/22 12:13:07;;;;;;;27.08;9.88;;;3.30;68.40;;;;;;4961302;28;20203;-82
2021/12/22 12:22:13;;;;;;;19.70;11.02;;;2.90;69.50;;;;;;4966614;28;20218;-82
2021/12/22 12:24:54;;;;;;;22.92;11.90;;;3.20;69.40;;;;;;4965112;28;20574;-83
2021/12/22 12:27:55;;;;;;;24.40;11.90;;;3.00;68.80;;;;;;4970131;28;20203;-85
2021/12/22 12:30:42;;;;;;;26.42;11.55;;;3.30;68.80;;;;;;4976106;28;20206;-86
2021/12/22 12:33:20;;;;;;;18.80;10.82;;;3.30;68.20;;;;;;4963850;28;20663;-81
2021/12/22 12:36:06;;;;;;;18.92;10.20;;;3.30;68.00;;;;;;4970558;28;20220;-82
2021/12/22 12:38:56;;;;;;;16.45;8.70;;;3.40;68.20;;;;;;4972119;28;20227;-83
2021/12/22 12:41:35;;;;;;;17.45;10.05;;;3.50;67.50;;;;;;4534680;28;20798;-87
2021/12/22 12:44:08;;;;;;;14.98;9.80;;;3.60;67.20;;;;;;4625901;29;20197;-84
2021/12/22 12:46:42;;;;;;;18.58;9.15;;;3.90;66.70;;;;;;4946796;29;20176;-83
2021/12/22 12:49:12;;;;;;;17.80;11.57;;;4.10;66.20;;;;;;4956457;29;20206;-83
2021/12/22 12:51:49;;;;;;;16.38;9.82;;;4.10;65.40;;;;;;4958817;29;20220;-86
2021/12/22 12:54:17;;;;;;;19.77;11.15;;;4.20;64.70;;;;;;4951498;29;20296;-84
2021/12/22 12:56:47;;;;;;;14.57;8.07;;;4.20;64.60;;;;;;4959087;29;20180;-84
2021/12/22 12:59:16;;;;;;;20.83;10.50;;;4.20;64.10;;;;;;4960115;28;20196;-84
2021/12/22 13:01:47;;;;;;;16.70;9.55;;;4.20;63.80;;;;;;4960725;29;20291;-83
2021/12/22 13:04:56;;;;;;;18.17;10.07;;;4.40;63.30;;;;;;4958368;29;20176;-85
2021/12/22 13:07:22;;;;;;;15.43;10.35;;;4.30;63.10;;;;;;4927446;29;20539;-84